createdAt,value
2022-12-08T00:02:13.900Z,2.00
2022-12-08T00:04:56.286Z,2.60
2022-12-08T00:07:43.470Z,2.70
2022-12-08T00:10:40.240Z,3.13
2022-12-08T00:13:00.151Z,2.83
2022-12-08T00:15:28.375Z,2.50
2022-12-08T00:17:56.496Z,2.20
2022-12-08T00:20:24.644Z,2.20
2022-12-08T00:22:54.174Z,2.43
2022-12-08T00:25:22.345Z,2.20
2022-12-08T00:27:50.490Z,2.80
2022-12-08T00:30:18.679Z,2.30
2022-12-08T00:32:46.822Z,3.17
2022-12-08T00:35:15.130Z,2.50
2022-12-08T00:37:43.324Z,2.50
2022-12-08T00:40:13.186Z,3.13
2022-12-08T00:42:41.356Z,2.50
2022-12-08T00:45:10.148Z,2.67
2022-12-08T00:47:38.282Z,3.13
2022-12-08T00:50:07.686Z,2.40
2022-12-08T00:52:35.848Z,2.73
2022-12-08T00:55:04.178Z,2.40
2022-12-08T00:57:33.805Z,2.50
2022-12-08T01:00:02.415Z,2.70
2022-12-08T01:02:32.485Z,3.10
2022-12-08T01:05:00.643Z,2.80
2022-12-08T01:07:29.441Z,2.60
2022-12-08T01:09:58.031Z,2.50
2022-12-08T01:12:28.392Z,2.33
2022-12-08T01:15:02.024Z,2.80
2022-12-08T01:17:30.797Z,2.30
2022-12-08T01:19:59.628Z,2.70
2022-12-08T01:22:27.758Z,2.63
2022-12-08T01:24:55.887Z,2.47
2022-12-08T01:27:24.093Z,2.67
2022-12-08T01:29:52.348Z,3.17
2022-12-08T01:32:21.913Z,2.60
2022-12-08T01:34:50.106Z,2.73
2022-12-08T01:37:18.249Z,1.90
2022-12-08T01:39:46.407Z,2.27
2022-12-08T01:42:21.794Z,2.50
2022-12-08T01:45:02.561Z,2.70
2022-12-08T01:47:42.192Z,2.50
2022-12-08T01:50:14.391Z,2.17
2022-12-08T01:52:44.963Z,2.63
2022-12-08T01:55:17.967Z,2.53
2022-12-08T01:57:50.197Z,2.50
2022-12-08T02:00:21.023Z,2.40
2022-12-08T02:02:55.575Z,2.30
2022-12-08T02:05:27.281Z,2.77
2022-12-08T02:07:58.134Z,2.27
2022-12-08T02:10:31.565Z,2.20
2022-12-08T02:13:01.474Z,2.43
2022-12-08T02:15:37.001Z,2.30
2022-12-08T02:18:18.374Z,2.70
2022-12-08T02:20:54.493Z,2.37
2022-12-08T02:23:33.903Z,2.23
2022-12-08T02:26:34.480Z,2.40
2022-12-08T02:29:29.003Z,1.83
2022-12-08T02:32:19.671Z,2.07
2022-12-08T02:34:58.610Z,2.63
2022-12-08T02:37:30.825Z,2.87
2022-12-08T02:40:10.091Z,2.23
2022-12-08T02:42:42.813Z,2.00
2022-12-08T02:45:15.340Z,2.63
2022-12-08T02:47:44.432Z,2.10
2022-12-08T02:50:14.155Z,2.20
2022-12-08T02:52:46.532Z,2.40
2022-12-08T02:55:26.502Z,2.20
2022-12-08T02:58:15.967Z,2.50
2022-12-08T03:00:59.965Z,2.20
2022-12-08T03:03:36.737Z,2.20
2022-12-08T03:06:14.606Z,2.10
2022-12-08T03:08:50.324Z,2.00
2022-12-08T03:11:22.588Z,2.20
2022-12-08T03:13:53.492Z,2.27
2022-12-08T03:16:26.186Z,2.47
2022-12-08T03:19:01.352Z,2.00
2022-12-08T03:21:33.164Z,2.17
2022-12-08T03:24:03.180Z,2.10
2022-12-08T03:26:35.949Z,2.23
2022-12-08T03:29:04.809Z,2.03
2022-12-08T03:31:36.823Z,2.43
2022-12-08T03:34:07.056Z,2.30
2022-12-08T03:36:36.637Z,2.20
2022-12-08T03:39:05.503Z,2.07
2022-12-08T03:41:33.639Z,2.40
2022-12-08T03:44:01.795Z,1.93
2022-12-08T03:46:31.702Z,2.10
2022-12-08T03:48:59.951Z,1.80
2022-12-08T03:51:28.280Z,2.43
2022-12-08T03:53:57.832Z,2.00
2022-12-08T03:56:27.462Z,2.40
2022-12-08T03:58:56.026Z,2.17
2022-12-08T04:01:24.686Z,2.27
2022-12-08T04:03:53.208Z,2.37
2022-12-08T04:06:22.134Z,1.90
2022-12-08T04:08:51.141Z,2.13
2022-12-08T04:11:20.894Z,2.53
2022-12-08T04:13:49.092Z,2.07
2022-12-08T04:16:19.101Z,2.30
2022-12-08T04:18:47.805Z,2.63
2022-12-08T04:21:16.265Z,2.00
2022-12-08T04:23:44.746Z,2.00
2022-12-08T04:26:13.366Z,2.60
2022-12-08T04:28:42.868Z,1.90
2022-12-08T04:31:11.355Z,1.80
2022-12-08T04:33:39.550Z,1.70
2022-12-08T04:36:09.054Z,2.17
2022-12-08T04:38:37.240Z,2.17
2022-12-08T04:41:05.407Z,1.90
2022-12-08T04:43:33.627Z,2.00
2022-12-08T04:46:03.216Z,2.00
2022-12-08T04:48:31.370Z,2.13
2022-12-08T04:50:59.541Z,2.03
2022-12-08T04:53:27.734Z,2.10
2022-12-08T04:55:55.989Z,2.13
2022-12-08T04:58:24.151Z,2.10
2022-12-08T05:00:52.432Z,1.90
2022-12-08T05:03:28.232Z,2.23
2022-12-08T05:05:56.917Z,1.67
2022-12-08T05:08:25.234Z,2.30
2022-12-08T05:10:53.555Z,1.97
2022-12-08T05:13:21.716Z,1.87
2022-12-08T05:15:49.892Z,2.10
2022-12-08T05:18:18.124Z,2.43
2022-12-08T05:20:47.695Z,2.20
2022-12-08T05:23:15.824Z,2.23
2022-12-08T05:25:43.958Z,2.10
2022-12-08T05:28:40.301Z,2.10
2022-12-08T05:31:00.463Z,2.00
2022-12-08T05:33:28.618Z,2.07
2022-12-08T05:35:58.128Z,2.30
2022-12-08T05:38:26.291Z,2.00
2022-12-08T05:40:54.471Z,2.10
2022-12-08T05:43:22.647Z,1.73
2022-12-08T05:45:51.372Z,2.40
2022-12-08T05:48:19.545Z,2.40
2022-12-08T05:50:48.536Z,2.10
2022-12-08T05:53:18.710Z,2.00
2022-12-08T05:55:47.419Z,2.03
2022-12-08T05:58:18.304Z,2.10
2022-12-08T06:00:47.908Z,2.07
2022-12-08T06:03:17.786Z,1.83
2022-12-08T06:05:47.792Z,1.90
2022-12-08T06:08:17.826Z,2.07
2022-12-08T06:10:46.550Z,1.90
2022-12-08T06:13:15.680Z,1.80
2022-12-08T06:15:44.216Z,2.07
2022-12-08T06:18:12.776Z,1.97
2022-12-08T06:20:40.959Z,2.43
2022-12-08T06:23:09.157Z,2.20
2022-12-08T06:25:38.701Z,2.10
2022-12-08T06:28:07.521Z,1.87
2022-12-08T06:30:35.715Z,2.10
2022-12-08T06:33:03.920Z,1.87
2022-12-08T06:35:32.069Z,1.83
2022-12-08T06:38:00.528Z,1.70
2022-12-08T06:40:28.768Z,2.20
2022-12-08T06:42:58.305Z,1.97
2022-12-08T06:45:26.454Z,2.30
2022-12-08T06:47:54.784Z,1.90
2022-12-08T06:50:22.953Z,2.30
2022-12-08T06:53:02.702Z,1.90
2022-12-08T06:58:23.000Z,1.80
2022-12-08T07:00:51.406Z,1.87
2022-12-08T07:03:19.616Z,1.93
2022-12-08T07:05:47.824Z,1.83
2022-12-08T07:08:16.230Z,2.50
2022-12-08T07:10:44.573Z,1.87
2022-12-08T07:13:12.774Z,2.00
2022-12-08T07:15:42.331Z,2.67
2022-12-08T07:18:10.491Z,2.87
2022-12-08T07:20:38.957Z,2.93
2022-12-08T07:23:07.133Z,2.77
2022-12-08T07:25:35.409Z,3.20
2022-12-08T07:28:09.908Z,2.20
2022-12-08T07:30:38.526Z,3.00
2022-12-08T07:33:10.686Z,3.33
2022-12-08T07:35:38.868Z,3.97
2022-12-08T07:38:07.007Z,3.00
2022-12-08T07:40:35.164Z,2.57
2022-12-08T07:43:03.334Z,3.47
2022-12-08T07:45:32.035Z,2.90
2022-12-08T07:48:00.545Z,3.20
2022-12-08T07:50:30.090Z,3.03
2022-12-08T07:52:58.257Z,3.10
2022-12-08T07:55:26.503Z,3.17
2022-12-08T07:57:54.663Z,3.80
2022-12-08T08:00:23.044Z,3.10
2022-12-08T08:02:51.286Z,3.00
2022-12-08T08:05:20.662Z,3.60
2022-12-08T08:07:50.301Z,3.20
2022-12-08T08:10:18.925Z,3.80
2022-12-08T08:12:47.649Z,3.70
2022-12-08T08:15:15.858Z,4.50
2022-12-08T08:17:44.053Z,3.80
2022-12-08T08:20:13.106Z,3.83
2022-12-08T08:22:41.286Z,4.40
2022-12-08T08:25:11.061Z,3.37
2022-12-08T08:27:39.228Z,3.47
2022-12-08T08:30:08.986Z,4.50
2022-12-08T08:32:37.936Z,3.70
2022-12-08T08:35:07.190Z,3.80
2022-12-08T08:37:35.440Z,4.30
2022-12-08T08:40:04.031Z,4.10
2022-12-08T08:42:33.836Z,3.60
2022-12-08T08:45:02.010Z,3.97
2022-12-08T08:47:30.213Z,3.73
2022-12-08T08:49:58.437Z,3.63
2022-12-08T08:52:26.568Z,4.07
2022-12-08T08:54:54.767Z,4.50
2022-12-08T08:57:25.757Z,4.10
2022-12-08T08:59:55.704Z,3.90
2022-12-08T09:02:24.012Z,3.73
2022-12-08T09:04:52.409Z,3.90
2022-12-08T09:07:20.674Z,4.23
2022-12-08T09:09:53.191Z,3.87
2022-12-08T09:12:23.926Z,3.43
2022-12-08T09:14:52.112Z,3.53
2022-12-08T09:17:21.660Z,3.50
2022-12-08T09:19:49.922Z,3.83
2022-12-08T09:22:18.193Z,3.60
2022-12-08T09:24:46.416Z,3.77
2022-12-08T09:27:14.768Z,4.07
2022-12-08T09:29:42.962Z,4.03
2022-12-08T09:32:11.465Z,4.20
2022-12-08T09:34:41.060Z,3.80
2022-12-08T09:37:09.345Z,3.57
2022-12-08T09:39:37.592Z,3.53
2022-12-08T09:42:07.830Z,3.53
2022-12-08T09:44:57.373Z,3.67
2022-12-08T09:47:35.334Z,3.97
2022-12-08T09:50:12.415Z,4.43
2022-12-08T09:52:44.885Z,3.60
2022-12-08T09:55:23.518Z,4.30
2022-12-08T09:57:59.803Z,3.43
2022-12-08T10:00:28.164Z,3.10
2022-12-08T10:02:57.398Z,3.73
2022-12-08T10:05:29.454Z,3.57
2022-12-08T10:08:08.115Z,4.13
2022-12-08T10:10:42.942Z,3.67
2022-12-08T10:13:20.444Z,3.80
2022-12-08T10:15:58.696Z,3.70
2022-12-08T10:18:30.417Z,3.77
2022-12-08T10:21:14.033Z,3.60
2022-12-08T10:23:44.330Z,3.53
2022-12-08T10:26:15.486Z,3.50
2022-12-08T10:28:45.309Z,4.10
2022-12-08T10:31:19.050Z,3.90
2022-12-08T10:33:53.715Z,3.50
2022-12-08T10:36:23.310Z,3.90
2022-12-08T10:38:51.539Z,3.60
2022-12-08T10:41:21.402Z,3.70
2022-12-08T10:43:51.795Z,4.10
2022-12-08T10:46:21.519Z,3.60
2022-12-08T10:48:53.089Z,3.80
2022-12-08T10:51:28.320Z,3.50
2022-12-08T10:53:56.676Z,3.43
2022-12-08T10:56:28.676Z,3.90
2022-12-08T10:59:13.009Z,3.30
2022-12-08T11:01:42.625Z,3.27
2022-12-08T11:04:16.746Z,3.33
2022-12-08T11:06:47.637Z,3.43
2022-12-08T11:09:38.155Z,3.43
2022-12-08T11:12:13.683Z,3.40
2022-12-08T11:14:50.419Z,3.50
2022-12-08T11:17:25.598Z,3.50
2022-12-08T11:19:59.663Z,3.77
2022-12-08T11:22:32.681Z,4.17
2022-12-08T11:25:03.616Z,3.53
2022-12-08T11:27:33.698Z,3.47
2022-12-08T11:30:03.267Z,3.30
2022-12-08T11:32:31.923Z,4.17
2022-12-08T11:35:03.755Z,4.03
2022-12-08T11:37:38.902Z,4.70
2022-12-08T11:40:09.770Z,4.17
2022-12-08T11:42:53.290Z,4.50
2022-12-08T11:45:28.501Z,3.83
2022-12-08T11:48:08.371Z,4.40
2022-12-08T11:50:44.397Z,4.70
2022-12-08T11:53:22.008Z,4.53
2022-12-08T11:55:56.321Z,4.40
2022-12-08T11:58:29.672Z,4.77
2022-12-08T12:00:58.570Z,4.80
2022-12-08T12:03:32.402Z,4.30
2022-12-08T12:06:46.643Z,4.17
2022-12-08T12:09:14.760Z,4.77
2022-12-08T12:12:09.274Z,4.50
2022-12-08T12:15:01.833Z,4.60
2022-12-08T12:17:40.928Z,5.53
2022-12-08T12:20:16.569Z,5.23
2022-12-08T12:22:47.795Z,4.77
2022-12-08T12:25:25.031Z,5.63
2022-12-08T12:27:57.590Z,5.50
2022-12-08T12:30:28.299Z,5.33
2022-12-08T12:33:00.051Z,5.10
2022-12-08T12:35:34.782Z,5.00
2022-12-08T12:38:28.397Z,6.10
2022-12-08T12:41:04.267Z,6.00
2022-12-08T12:43:34.887Z,6.93
2022-12-08T12:46:43.425Z,5.67
2022-12-08T12:49:48.831Z,6.27
2022-12-08T12:52:53.305Z,6.47
2022-12-08T12:55:24.034Z,5.50
2022-12-08T12:57:55.653Z,4.97
2022-12-08T13:00:25.411Z,6.10
2022-12-08T13:02:55.048Z,6.63
2022-12-08T13:05:26.443Z,6.10
2022-12-08T13:07:57.641Z,5.67
2022-12-08T13:10:30.441Z,5.43
2022-12-08T13:13:18.866Z,5.20
2022-12-08T13:15:52.391Z,5.07
2022-12-08T13:18:23.032Z,6.00
2022-12-08T13:20:54.285Z,6.67
2022-12-08T13:23:44.153Z,6.23
2022-12-08T13:26:18.782Z,5.80
2022-12-08T13:29:15.015Z,5.70
2022-12-08T13:31:50.188Z,4.87
2022-12-08T13:34:24.372Z,6.07
2022-12-08T13:37:02.233Z,5.30
2022-12-08T13:39:37.852Z,6.17
2022-12-08T13:42:16.766Z,5.40
2022-12-08T13:45:24.140Z,5.73
2022-12-08T13:48:06.014Z,5.30
2022-12-08T13:59:24.516Z,4.90
2022-12-08T14:01:54.665Z,5.73
2022-12-08T14:07:13.757Z,5.07
2022-12-08T14:09:42.878Z,6.00
2022-12-08T14:12:20.542Z,5.70
2022-12-08T14:15:03.231Z,6.20
2022-12-08T14:17:33.950Z,5.37
2022-12-08T14:20:04.948Z,4.90
2022-12-08T14:22:38.810Z,6.13
2022-12-08T14:25:09.008Z,5.07
2022-12-08T14:27:38.921Z,5.43
2022-12-08T14:30:17.876Z,5.07
2022-12-08T14:32:50.061Z,4.87
2022-12-08T14:35:24.521Z,4.73
2022-12-08T14:37:56.636Z,4.27
2022-12-08T14:40:28.930Z,5.07
2022-12-08T14:43:13.647Z,4.97
2022-12-08T14:45:49.166Z,4.20
2022-12-08T14:48:22.874Z,4.87
2022-12-08T14:51:02.397Z,4.43
2022-12-08T14:53:38.122Z,4.97
2022-12-08T14:56:10.766Z,4.47
2022-12-08T14:58:41.100Z,4.97
2022-12-08T15:01:13.267Z,4.23
2022-12-08T15:03:47.328Z,4.30
2022-12-08T15:06:23.265Z,4.50
2022-12-08T15:08:58.704Z,4.97
2022-12-08T15:11:36.914Z,4.33
2022-12-08T15:14:05.331Z,3.83
2022-12-08T15:16:40.668Z,4.03
2022-12-08T15:19:27.611Z,4.53
2022-12-08T15:21:58.451Z,4.00
2022-12-08T15:24:29.206Z,4.70
2022-12-08T15:26:57.811Z,4.63
2022-12-08T15:29:28.019Z,4.60
2022-12-08T15:31:58.742Z,4.77
2022-12-08T15:34:28.477Z,3.80
2022-12-08T15:36:56.721Z,4.37
2022-12-08T15:39:36.639Z,4.57
2022-12-08T15:42:07.545Z,4.27
2022-12-08T15:44:35.768Z,4.50
2022-12-08T15:47:05.432Z,4.83
2022-12-08T15:49:35.019Z,4.30
2022-12-08T15:52:11.131Z,4.33
2022-12-08T15:54:40.030Z,4.53
2022-12-08T15:57:20.402Z,4.20
2022-12-08T15:59:54.738Z,4.53
2022-12-08T16:02:25.249Z,4.10
2022-12-08T16:07:43.333Z,3.70
2022-12-08T16:10:17.924Z,4.50
2022-12-08T16:16:21.623Z,4.70
2022-12-08T16:18:51.038Z,4.60
2022-12-08T16:21:57.844Z,4.50
2022-12-08T16:24:09.636Z,4.80
2022-12-08T16:27:51.189Z,4.63
2022-12-08T16:29:26.370Z,5.10
2022-12-08T16:31:54.624Z,4.77
2022-12-08T16:34:22.818Z,5.20
2022-12-08T16:36:53.352Z,4.70
2022-12-08T16:39:21.566Z,4.60
2022-12-08T16:42:07.337Z,4.40
2022-12-08T16:44:40.504Z,5.77
2022-12-08T16:47:10.920Z,6.30
2022-12-08T16:49:39.211Z,5.40
2022-12-08T16:52:08.856Z,5.70
2022-12-08T16:54:37.024Z,5.47
2022-12-08T16:57:05.383Z,5.50
2022-12-08T16:59:33.616Z,5.67
2022-12-08T17:02:01.755Z,6.00
2022-12-08T17:04:32.297Z,4.93
2022-12-08T17:07:00.879Z,6.27
2022-12-08T17:09:32.416Z,5.73
2022-12-08T17:12:04.081Z,5.10
2022-12-08T17:14:34.519Z,5.70
2022-12-08T17:17:02.769Z,4.97
2022-12-08T17:19:31.164Z,6.03
2022-12-08T17:22:00.082Z,6.33
2022-12-08T17:24:29.497Z,5.97
2022-12-08T17:27:03.912Z,6.10
2022-12-08T17:29:32.845Z,5.20
2022-12-08T17:32:01.133Z,5.70
2022-12-08T17:34:29.402Z,5.37
2022-12-08T17:36:57.561Z,6.27
2022-12-08T17:39:26.040Z,5.90
2022-12-08T17:41:54.234Z,5.50
2022-12-08T17:44:23.825Z,5.00
2022-12-08T17:46:53.412Z,5.60
2022-12-08T17:49:24.472Z,4.90
2022-12-08T17:51:54.253Z,5.23
2022-12-08T17:54:22.840Z,4.90
2022-12-08T17:56:51.059Z,5.13
2022-12-08T17:59:19.811Z,5.43
2022-12-08T18:01:49.417Z,5.03
2022-12-08T18:04:17.702Z,5.20
2022-12-08T18:06:46.409Z,5.90
2022-12-08T18:09:15.087Z,4.60
2022-12-08T18:11:44.388Z,5.30
2022-12-08T18:14:12.858Z,5.83
2022-12-08T18:16:42.975Z,6.43
2022-12-08T18:19:13.509Z,5.17
2022-12-08T18:21:42.893Z,5.37
2022-12-08T18:24:18.889Z,5.37
2022-12-08T18:26:47.839Z,5.77
2022-12-08T18:29:16.153Z,5.50
2022-12-08T18:31:44.522Z,6.00
2022-12-08T18:34:14.226Z,5.57
2022-12-08T18:36:42.482Z,5.20
2022-12-08T18:39:21.585Z,6.60
2022-12-08T18:41:49.958Z,5.90
2022-12-08T18:44:18.409Z,5.80
2022-12-08T18:46:46.738Z,6.00
2022-12-08T18:49:18.714Z,5.47
2022-12-08T18:51:47.284Z,6.00
2022-12-08T18:54:15.495Z,6.17
2022-12-08T18:56:43.716Z,6.43
2022-12-08T18:59:13.223Z,5.47
2022-12-08T19:01:41.921Z,6.13
2022-12-08T19:07:00.209Z,6.40
2022-12-08T19:09:29.047Z,5.40
2022-12-08T19:11:57.817Z,5.70
2022-12-08T19:14:30.257Z,6.33
2022-12-08T19:16:58.827Z,6.87
2022-12-08T19:19:27.382Z,6.40
2022-12-08T19:21:55.972Z,6.90
2022-12-08T19:24:25.868Z,5.90
2022-12-08T19:26:54.225Z,6.70
2022-12-08T19:29:22.555Z,6.33
2022-12-08T19:31:50.944Z,6.33
2022-12-08T19:34:19.519Z,6.33
2022-12-08T19:36:47.813Z,6.37
2022-12-08T19:39:35.861Z,5.67
2022-12-08T19:42:24.543Z,5.40
2022-12-08T19:44:55.354Z,6.10
2022-12-08T19:47:25.312Z,6.50
2022-12-08T19:49:54.807Z,6.50
2022-12-08T19:52:23.257Z,6.30
2022-12-08T19:54:51.517Z,5.70
2022-12-08T19:57:21.125Z,5.83
2022-12-08T19:59:54.655Z,6.87
2022-12-08T20:02:24.567Z,7.57
2022-12-08T20:04:52.937Z,6.43
2022-12-08T20:07:21.299Z,6.43
2022-12-08T20:09:49.478Z,6.70
2022-12-08T20:12:17.659Z,6.43
2022-12-08T20:14:47.318Z,7.00
2022-12-08T20:17:15.639Z,6.97
2022-12-08T20:19:43.873Z,6.50
2022-12-08T20:22:12.063Z,5.93
2022-12-08T20:24:40.264Z,5.77
2022-12-08T20:27:08.432Z,6.17
2022-12-08T20:29:36.852Z,6.33
2022-12-08T20:32:06.823Z,7.37
2022-12-08T20:34:35.232Z,6.47
2022-12-08T20:37:03.700Z,7.20
2022-12-08T20:39:31.906Z,6.53
2022-12-08T20:42:00.270Z,7.30
2022-12-08T20:44:30.192Z,6.00
2022-12-08T20:46:58.781Z,7.57
2022-12-08T20:49:32.909Z,6.93
2022-12-08T20:52:02.950Z,7.23
2022-12-08T20:54:31.161Z,7.00
2022-12-08T20:56:59.335Z,7.20
2022-12-08T20:59:27.717Z,6.80
2022-12-08T21:01:56.339Z,7.63
2022-12-08T21:04:25.231Z,6.50
2022-12-08T21:06:55.054Z,7.50
2022-12-08T21:09:23.595Z,7.03
2022-12-08T21:11:51.865Z,7.27
2022-12-08T21:14:20.242Z,7.47
2022-12-08T21:16:50.017Z,7.90
2022-12-08T21:19:19.858Z,7.70
2022-12-08T21:21:50.742Z,8.07
2022-12-08T21:24:20.638Z,7.20
2022-12-08T21:26:49.026Z,7.00
2022-12-08T21:29:17.687Z,7.23
2022-12-08T21:31:46.183Z,7.73
2022-12-08T21:34:14.666Z,7.83
2022-12-08T21:36:43.078Z,7.50
2022-12-08T21:39:12.992Z,7.90
2022-12-08T21:42:00.630Z,8.60
2022-12-08T21:44:29.118Z,8.10
2022-12-08T21:46:57.597Z,8.53
2022-12-08T21:49:25.957Z,8.33
2022-12-08T21:51:55.344Z,7.30
2022-12-08T21:54:23.595Z,7.73
2022-12-08T21:56:53.231Z,8.60
2022-12-08T21:59:21.681Z,7.90
2022-12-08T22:01:49.997Z,8.10
2022-12-08T22:04:21.387Z,7.50
2022-12-08T22:06:50.085Z,7.83
2022-12-08T22:09:19.020Z,7.70
2022-12-08T22:11:47.559Z,7.13
2022-12-08T22:14:17.166Z,8.00
2022-12-08T22:16:48.378Z,7.33
2022-12-08T22:19:16.709Z,8.30
2022-12-08T22:21:45.102Z,8.97
2022-12-08T22:24:13.354Z,8.30
2022-12-08T22:26:41.703Z,8.80
2022-12-08T22:29:10.104Z,8.00
2022-12-08T22:31:39.726Z,8.07
2022-12-08T22:34:07.965Z,8.17
2022-12-08T22:36:36.388Z,8.57
2022-12-08T22:39:05.926Z,7.90
2022-12-08T22:41:34.155Z,8.80
2022-12-08T22:44:02.404Z,8.30
2022-12-08T22:46:31.471Z,8.30
2022-12-08T22:49:01.601Z,7.77
2022-12-08T22:51:29.953Z,7.80
2022-12-08T22:53:58.190Z,8.33
2022-12-08T22:56:26.495Z,8.10
2022-12-08T22:58:54.755Z,7.90
2022-12-08T23:01:24.938Z,8.57
2022-12-08T23:03:53.504Z,7.97
2022-12-08T23:06:23.497Z,8.10
2022-12-08T23:08:52.242Z,8.37
2022-12-08T23:11:21.826Z,8.47
2022-12-08T23:13:50.256Z,7.97
2022-12-08T23:16:18.584Z,9.00
2022-12-08T23:18:48.313Z,7.73
2022-12-08T23:21:19.865Z,8.53
2022-12-08T23:23:49.609Z,8.00
2022-12-08T23:26:20.750Z,8.03
2022-12-08T23:28:49.124Z,7.57
2022-12-08T23:31:18.219Z,8.77
2022-12-08T23:33:46.813Z,8.10
2022-12-08T23:36:16.201Z,7.30
2022-12-08T23:38:44.844Z,7.03
2022-12-08T23:41:16.666Z,8.50
2022-12-08T23:43:46.251Z,8.37
2022-12-08T23:46:15.156Z,8.00
2022-12-08T23:48:43.782Z,8.10
2022-12-08T23:51:12.152Z,8.23
2022-12-08T23:53:40.329Z,8.00
2022-12-08T23:56:11.245Z,7.90
2022-12-08T23:58:42.168Z,7.93
